Summerside, Prince Edward Island

9:09 AM ADT on August 03, 2015 (GMT -0300)
IPEKENSI2 | | Change Station
CLOSE
Current Station
Personal Weather Station
Location: Kensington RR2, PE
Elevation: 13 ft
Nearby Weather Stations

Elev 13 ft 46.48 °N, 63.60 °W | Updated 8 minutes ago

Mostly Cloudy
Mostly Cloudy
74.8 °F
Feels Like 72 °F
N
3.2
Wind Variable Wind from SW

Today
High -- | Low -- °F
--% Chance of Precip.
Yesterday
High -- | Low -- °F
Precip. -- in
5:58 AM 8:43 PM
Waning Gibbous, 87% visible
Pressure 29.92 in
Visibility 15.0 miles
Clouds Mostly Cloudy 26000 ft
Heat Index 72 °F
Dew Point 74 °F
Humidity 98%
Rainfall 0.00 in
Snow Depth Not available.
UV 2 out of 12
Pollen Not available.
Air Quality Not available.
Flu Activity Not available.
METAR CYYG 031200Z 20008KT 15SM BKN260 21/14 A2992 RMK CI7 SLP132 DENSITY ALT 900FT

More Conditions Fewer Conditions

Pressure 29.92 in
Visibility 15.0 miles
Clouds Mostly Cloudy 26000 ft
Heat Index 72 °F
Dew Point 74 °F
Humidity 98%
Rainfall 0.00 in
Snow Depth Not available.
UV 2 out of 12
Pollen Not available.
Air Quality Not available.
Flu Activity Not available.
METAR CYYG 031200Z 20008KT 15SM BKN260 21/14 A2992 RMK CI7 SLP132 DENSITY ALT 900FT

More Conditions Fewer Conditions

10-Day Weather Forecast

×

Almanac

Astronomy

Aug. 03, 2015 Rise Set
Actual Time
Civil Twilight
Nautical Twilight
Astronomical Twilight
Moon
Length of Visible Light
Length of Day
Tomorrow will be .
, % of the Moon is Illuminated

Today's Extremes

Country Highs Country Lows

Community

WunderPhotos

Upload Photos

1,843,618 photos uploaded!

WunderBlogs® & News

Nearby

Air Quality

  Air Quality AQ Index Pollutant
Not available.

Snow Depth

Station Depth Elevation

Earthquake Activity

City Distance Mag. Time & Date
Minimum magnitude displayed is 2.5.

Coastal Water Temperatures

Place Temperature

Stations

Nearby Weather Stations

Station Location Temp. Windchill Dew Point Humidity Wind Precip. Elev Updated Type